Buffalo, WY

1:36 PM MDT on May 06, 2015 (GMT -0600)
Esponda Ranch | | Change Station
CLOSE
Current Station
Personal Weather Station
Location: Buffalo, WY
Elevation: 4665 ft
Nearby Weather Stations

Elev 4665 ft 44.32 °N, 106.67 °W | Updated 34 seconds ago

Overcast
Overcast
48.1 °F
Feels Like 40 °F
N
25.0
Wind Variable Wind from North
Gusts 36.0 mph

Today
High -- | Low -- °F
--% Chance of Precip.
Yesterday
High -- | Low -- °F
Precip. -- in
5:50 AM 8:16 PM
Waning Gibbous, 93% visible
Pressure 29.80 in
Visibility 10.0 miles
Clouds Scattered Clouds 2200 ft
Overcast 6000 ft
Windchill 40 °F
Dew Point 39 °F
Humidity 71%
Rainfall 0.00 in
Snow Depth Not available.
UV 3 out of 12
Pollen 7.60 out of 12
Air Quality Not available.
Flu Activity Sporadic
SPECI KBYG 061917Z AUTO 34034G44KT 10SM SCT022 OVC060 08/03 A2980 RMK AO2 PK WND 34044/1916 T00830028

More Conditions Fewer Conditions

Pressure 29.80 in
Visibility 10.0 miles
Clouds Scattered Clouds 2200 ft
Overcast 6000 ft
Windchill 40 °F
Dew Point 39 °F
Humidity 71%
Rainfall 0.00 in
Snow Depth Not available.
UV 3 out of 12
Pollen 7.60 out of 12
Air Quality Not available.
Flu Activity Sporadic
SPECI KBYG 061917Z AUTO 34034G44KT 10SM SCT022 OVC060 08/03 A2980 RMK AO2 PK WND 34044/1916 T00830028

More Conditions Fewer Conditions

10-Day Weather Forecast

Almanac

Astronomy

May. 06, 2015 Rise Set
Actual Time
Civil Twilight
Nautical Twilight
Astronomical Twilight
Moon
Length of Visible Light
Length of Day
Tomorrow will be .
, % of the Moon is Illuminated

Today's Extremes

State Highs State Lows

Community

WunderPhotos

Upload Photos

1,819,002 photos uploaded!

WunderBlogs® & News

Nearby

Air Quality

  Air Quality AQ Index Pollutant
Not available.

Snow Depth

Station Depth Elevation

Earthquake Activity

City Distance Mag. Time & Date
Minimum magnitude displayed is 2.5.

Coastal Water Temperatures

Place Temperature

Stations

Nearby Weather Stations

Station Location Temp. Windchill Dew Point Humidity Wind Precip. Elev Updated Type